Time;durP1;ratioP1;P1;durP2;ratioP2;P2;SDS_P1;SDS_P2;PMS_P1;PMS_P2;Temp;Humidity;BMP_temperature;BMP_pressure;BME280_temperature;BME280_humidity;BME280_pressure;Samples;Min_cycle;Max_cycle;Signal;HPM_P1;HPM_P2
2022/01/26 00:06:06;;;;;;;91.78;38.28;;;4.50;90.30;;;;;;6141280;23;20025;-75
2022/01/26 00:08:32;;;;;;;87.80;38.78;;;4.50;90.40;;;;;;6140408;23;20021;-77
2022/01/26 00:10:57;;;;;;;82.00;40.22;;;4.50;90.40;;;;;;6137860;23;20032;-79
2022/01/26 00:13:23;;;;;;;89.75;38.95;;;4.50;90.40;;;;;;6163471;23;20021;-76
2022/01/26 00:15:49;;;;;;;87.47;39.22;;;4.50;90.50;;;;;;6115037;23;20017;-77
2022/01/26 00:18:17;;;;;;;90.88;39.65;;;4.50;90.50;;;;;;6138096;23;20056;-76
2022/01/26 00:20:52;;;;;;;89.80;39.53;;;4.50;90.50;;;;;;6114960;23;20344;-77
2022/01/26 00:25:59;;;;;;;87.45;39.65;;;4.40;90.50;;;;;;6163205;23;20553;-77
2022/01/26 00:28:58;;;;;;;95.43;39.15;;;4.40;90.50;;;;;;6141583;23;20017;-77
2022/01/26 00:39:52;;;;;;;83.88;37.13;;;4.40;90.60;;;;;;6142377;23;20475;-77
2022/01/26 00:42:18;;;;;;;90.40;38.30;;;4.40;90.70;;;;;;6113617;23;20021;-77
2022/01/26 00:44:47;;;;;;;84.72;38.00;;;4.40;90.70;;;;;;6138495;23;20350;-78
2022/01/26 00:47:14;;;;;;;87.30;36.80;;;4.40;90.70;;;;;;6139165;23;20025;-77
2022/01/26 00:49:40;;;;;;;88.93;39.88;;;4.40;90.70;;;;;;6138746;23;20028;-78
2022/01/26 00:52:11;;;;;;;93.13;38.13;;;4.40;90.70;;;;;;6138056;23;20013;-77
2022/01/26 00:54:37;;;;;;;80.20;38.08;;;4.40;90.70;;;;;;6115427;23;20456;-78
2022/01/26 00:57:03;;;;;;;87.55;36.33;;;4.40;90.70;;;;;;6138493;23;20029;-82
2022/01/26 00:59:31;;;;;;;85.78;37.08;;;4.40;90.70;;;;;;6138763;23;20028;-77
2022/01/26 01:01:57;;;;;;;89.88;39.65;;;4.40;90.80;;;;;;6114104;23;20471;-74
2022/01/26 01:04:22;;;;;;;86.32;37.97;;;4.30;90.70;;;;;;6140122;23;20075;-77
2022/01/26 01:06:54;;;;;;;87.18;39.33;;;4.30;90.80;;;;;;6140079;23;20022;-74
2022/01/26 01:09:22;;;;;;;85.45;38.33;;;4.30;90.80;;;;;;6164590;23;20096;-77
2022/01/26 01:11:48;;;;;;;91.43;38.58;;;4.40;90.80;;;;;;6141022;23;20063;-76
2022/01/26 01:14:14;;;;;;;91.97;37.67;;;4.30;90.80;;;;;;6139628;23;20013;-77
2022/01/26 01:16:40;;;;;;;95.65;39.15;;;4.30;90.80;;;;;;6115783;23;20107;-77
2022/01/26 01:19:12;;;;;;;92.72;39.33;;;4.40;90.80;;;;;;6140206;23;20087;-81
2022/01/26 01:29:47;;;;;;;82.00;35.25;;;4.30;90.80;;;;;;6141337;23;20056;-77
2022/01/26 01:32:16;;;;;;;88.53;37.97;;;4.30;90.80;;;;;;6117706;23;20052;-77
2022/01/26 01:34:42;;;;;;;84.32;37.50;;;4.30;90.80;;;;;;6140402;23;20383;-77
2022/01/26 01:37:10;;;;;;;84.22;36.78;;;4.30;90.80;;;;;;6140291;23;20017;-80
2022/01/26 01:39:36;;;;;;;84.55;36.22;;;4.30;90.80;;;;;;6139741;23;20017;-77
2022/01/26 01:42:03;;;;;;;77.05;36.88;;;4.30;90.80;;;;;;6138218;23;20013;-75
2022/01/26 01:44:28;;;;;;;93.90;38.80;;;4.30;90.80;;;;;;6162673;23;20009;-75
2022/01/26 01:46:56;;;;;;;84.22;38.97;;;4.30;90.80;;;;;;6112823;23;20084;-75
2022/01/26 01:49:21;;;;;;;89.50;38.15;;;4.30;90.80;;;;;;6137622;23;20147;-75
2022/01/26 01:51:55;;;;;;;84.18;36.67;;;4.30;90.80;;;;;;6113598;23;20332;-75
2022/01/26 01:54:21;;;;;;;87.10;37.30;;;4.30;90.80;;;;;;6115039;23;20428;-75
2022/01/26 01:56:53;;;;;;;87.53;37.63;;;4.30;90.70;;;;;;6163752;23;20025;-75
2022/01/26 01:59:19;;;;;;;91.22;37.13;;;4.30;90.70;;;;;;6115879;23;20048;-76
2022/01/26 02:01:45;;;;;;;97.05;40.15;;;4.30;90.70;;;;;;6139718;23;20017;-74
2022/01/26 02:04:11;;;;;;;92.75;39.15;;;4.30;90.70;;;;;;6115239;23;20017;-79
2022/01/26 02:06:37;;;;;;;90.93;37.30;;;4.30;90.70;;;;;;6115449;23;20091;-75
2022/01/26 02:09:02;;;;;;;94.35;39.78;;;4.20;90.70;;;;;;6115312;23;20013;-75
2022/01/26 02:11:28;;;;;;;91.85;39.45;;;4.30;90.80;;;;;;6139483;23;20028;-75
2022/01/26 02:14:08;;;;;;;91.70;39.60;;;4.20;90.70;;;;;;6114706;23;20019;-74
2022/01/26 02:19:50;;;;;;;90.53;38.20;;;4.20;90.70;;;;;;6141309;23;20094;-75
2022/01/26 02:52:02;;;;;;;93.88;38.53;;;4.10;90.80;;;;;;6142313;23;20444;-75
2022/01/26 03:02:00;;;;;;;96.50;41.25;;;4.10;90.90;;;;;;6139471;23;20025;-77
2022/01/26 03:09:47;;;;;;;91.28;37.75;;;4.10;91.00;;;;;;6142001;23;20067;-76
2022/01/26 03:12:20;;;;;;;92.40;38.33;;;4.10;91.00;;;;;;6164178;23;20325;-76
2022/01/26 03:14:51;;;;;;;97.75;40.22;;;4.10;91.00;;;;;;6140598;23;20020;-77
2022/01/26 03:19:50;;;;;;;95.65;38.05;;;4.10;91.00;;;;;;6163742;23;20021;-77
2022/01/26 03:28:14;;;;;;;92.93;37.40;;;4.10;91.00;;;;;;6163369;23;20103;-76
2022/01/26 03:31:03;;;;;;;89.30;37.90;;;4.10;91.10;;;;;;6139811;23;20352;-76
2022/01/26 03:35:58;;;;;;;93.22;37.85;;;4.00;91.00;;;;;;6138767;23;20440;-75
2022/01/26 03:38:38;;;;;;;102.47;40.45;;;4.10;91.10;;;;;;6163317;23;20332;-77
2022/01/26 03:41:19;;;;;;;88.82;36.30;;;4.00;91.10;;;;;;6117896;23;20436;-75
2022/01/26 03:43:45;;;;;;;99.95;39.10;;;4.00;91.10;;;;;;6166926;23;20503;-75
2022/01/26 03:46:11;;;;;;;94.18;37.58;;;4.00;91.10;;;;;;6138878;23;20024;-75
2022/01/26 03:48:36;;;;;;;99.75;40.15;;;4.00;91.10;;;;;;6114640;23;20404;-76
2022/01/26 03:51:02;;;;;;;94.53;38.63;;;4.00;91.20;;;;;;6163898;23;20024;-75
2022/01/26 03:53:28;;;;;;;95.32;38.90;;;4.00;91.20;;;;;;6163610;23;20059;-76
2022/01/26 03:55:53;;;;;;;91.78;39.38;;;4.00;91.20;;;;;;6138753;23;20029;-75
2022/01/26 03:58:19;;;;;;;95.75;38.58;;;4.00;91.20;;;;;;6138356;23;20024;-76
2022/01/26 04:00:45;;;;;;;99.93;39.42;;;4.00;91.30;;;;;;6113713;23;20069;-76
2022/01/26 04:03:10;;;;;;;97.00;37.25;;;4.00;91.30;;;;;;6138669;23;20044;-75
2022/01/26 04:05:36;;;;;;;89.35;38.78;;;4.00;91.30;;;;;;6138322;23;20017;-76
2022/01/26 04:08:08;;;;;;;92.95;38.15;;;4.00;91.30;;;;;;6163097;23;20067;-75
2022/01/26 04:11:03;;;;;;;96.07;39.45;;;4.00;91.30;;;;;;6139712;23;20373;-75
2022/01/26 04:13:23;;;;;;;90.00;37.97;;;4.00;91.30;;;;;;6141492;23;20021;-75
2022/01/26 04:15:48;;;;;;;85.80;38.05;;;4.00;91.40;;;;;;6162906;23;20368;-77
2022/01/26 04:18:19;;;;;;;98.05;41.53;;;4.00;91.40;;;;;;6138924;23;20032;-75
2022/01/26 04:20:49;;;;;;;90.60;39.88;;;4.00;91.30;;;;;;6164367;23;20154;-74
2022/01/26 04:23:52;;;;;;;94.03;39.08;;;4.00;91.30;;;;;;6115111;23;20017;-75
2022/01/26 04:26:11;;;;;;;92.37;37.43;;;3.90;91.30;;;;;;6137627;23;20033;-75
2022/01/26 04:28:46;;;;;;;98.70;38.08;;;4.00;91.40;;;;;;6189256;23;20332;-76
2022/01/26 04:31:12;;;;;;;87.55;35.58;;;3.90;91.30;;;;;;6116128;23;20100;-75
2022/01/26 04:33:37;;;;;;;93.47;36.70;;;4.00;91.40;;;;;;6162934;23;20494;-76
2022/01/26 04:36:07;;;;;;;88.53;35.33;;;4.00;91.40;;;;;;6138224;23;20021;-75
2022/01/26 04:38:42;;;;;;;88.30;36.13;;;3.90;91.40;;;;;;6139631;23;20049;-77
2022/01/26 04:41:27;;;;;;;88.68;34.80;;;3.90;91.40;;;;;;6118003;23;20039;-75
2022/01/26 04:44:01;;;;;;;85.82;36.38;;;3.90;91.40;;;;;;6119423;23;20017;-75
2022/01/26 04:46:27;;;;;;;85.15;36.22;;;3.90;91.40;;;;;;6117885;23;20041;-75
2022/01/26 04:48:53;;;;;;;94.78;37.13;;;3.90;91.40;;;;;;6140695;23;20227;-75
2022/01/26 04:51:19;;;;;;;82.28;34.15;;;3.90;91.40;;;;;;6116216;23;20104;-75
2022/01/26 04:53:45;;;;;;;86.13;35.67;;;3.80;91.40;;;;;;6165230;23;20021;-77
2022/01/26 04:56:13;;;;;;;86.68;33.83;;;3.90;91.40;;;;;;6139972;23;20048;-75
2022/01/26 04:58:39;;;;;;;89.38;35.28;;;3.90;91.40;;;;;;6140389;23;20064;-76
2022/01/26 05:01:05;;;;;;;88.57;35.10;;;3.90;91.40;;;;;;6140350;23;20013;-76
2022/01/26 05:03:30;;;;;;;86.10;34.53;;;3.90;91.40;;;;;;6165225;23;20064;-75
2022/01/26 05:05:56;;;;;;;85.13;36.17;;;3.90;91.40;;;;;;6140326;23;20071;-74
2022/01/26 05:08:22;;;;;;;88.63;34.90;;;3.90;91.40;;;;;;6116293;23;20028;-75
2022/01/26 05:10:47;;;;;;;82.05;33.65;;;3.90;91.40;;;;;;6164515;23;20071;-75
2022/01/26 05:13:15;;;;;;;81.70;33.40;;;3.90;91.40;;;;;;6164975;23;20340;-75
2022/01/26 05:15:41;;;;;;;78.72;32.67;;;3.90;91.40;;;;;;6164455;23;20013;-75
2022/01/26 05:18:07;;;;;;;80.10;30.23;;;3.90;91.40;;;;;;6140473;23;20013;-74
2022/01/26 05:20:34;;;;;;;76.80;34.65;;;3.90;91.40;;;;;;6140057;23;20019;-75
2022/01/26 05:22:59;;;;;;;77.93;31.73;;;4.00;91.40;;;;;;6164424;23;20025;-75
2022/01/26 05:25:25;;;;;;;70.95;31.52;;;4.00;91.40;;;;;;6164640;23;20035;-75
2022/01/26 05:27:51;;;;;;;78.25;31.75;;;3.90;91.30;;;;;;6164231;23;20021;-75
2022/01/26 05:30:16;;;;;;;81.85;30.83;;;3.90;91.30;;;;;;6164754;23;20028;-75
2022/01/26 05:32:42;;;;;;;71.85;31.73;;;3.90;91.30;;;;;;6139202;23;20076;-76
2022/01/26 05:35:08;;;;;;;71.10;30.35;;;3.90;91.30;;;;;;6113211;23;20061;-75
2022/01/26 05:37:34;;;;;;;71.40;28.73;;;3.90;91.30;;;;;;6137681;23;20392;-75
2022/01/26 05:40:02;;;;;;;75.55;29.20;;;3.90;91.20;;;;;;6163285;23;20025;-75
2022/01/26 05:42:27;;;;;;;72.35;28.73;;;3.90;91.20;;;;;;6165584;23;20088;-75
2022/01/26 05:44:58;;;;;;;69.82;27.50;;;3.90;91.20;;;;;;6140020;23;20028;-75
2022/01/26 05:47:24;;;;;;;68.80;28.85;;;3.90;91.20;;;;;;6191057;23;20048;-75
2022/01/26 05:49:50;;;;;;;71.35;29.25;;;3.90;91.20;;;;;;6139704;23;20522;-76
2022/01/26 05:52:15;;;;;;;67.75;27.83;;;3.90;91.20;;;;;;6163981;23;20048;-76
2022/01/26 05:54:41;;;;;;;72.65;29.38;;;3.90;91.10;;;;;;6114762;23;20013;-75
2022/01/26 05:57:07;;;;;;;68.25;27.50;;;3.90;91.10;;;;;;6163945;23;20436;-75
2022/01/26 05:59:33;;;;;;;61.80;27.02;;;3.90;91.10;;;;;;6164089;23;20017;-75
2022/01/26 06:01:59;;;;;;;67.10;27.15;;;3.90;91.10;;;;;;6139656;23;20023;-75
2022/01/26 06:04:24;;;;;;;68.05;27.88;;;3.90;91.10;;;;;;6140274;23;20013;-75
2022/01/26 06:06:50;;;;;;;69.25;28.25;;;3.90;91.10;;;;;;6163927;23;20017;-75
2022/01/26 06:09:16;;;;;;;65.55;27.02;;;3.90;91.10;;;;;;6139159;23;20487;-75
2022/01/26 06:11:41;;;;;;;69.45;28.25;;;3.90;91.10;;;;;;6163462;23;20032;-75
2022/01/26 06:14:07;;;;;;;71.40;27.95;;;3.90;91.10;;;;;;6138376;23;20013;-74
2022/01/26 06:16:33;;;;;;;71.65;29.17;;;3.90;91.10;;;;;;6163175;23;20027;-75
2022/01/26 06:18:58;;;;;;;71.68;27.58;;;3.90;91.10;;;;;;6163494;23;20025;-74
2022/01/26 06:21:24;;;;;;;64.53;27.73;;;3.90;91.40;;;;;;6114363;23;20020;-75
2022/01/26 06:23:50;;;;;;;67.65;27.45;;;3.90;91.00;;;;;;6114259;23;20216;-76
2022/01/26 06:26:15;;;;;;;68.15;27.60;;;3.90;91.00;;;;;;6138326;23;20013;-76
2022/01/26 06:28:41;;;;;;;64.32;26.35;;;3.90;91.00;;;;;;6138824;23;20336;-77
2022/01/26 06:31:11;;;;;;;64.07;26.45;;;3.90;91.00;;;;;;6189170;23;20017;-76
2022/01/26 06:33:40;;;;;;;65.43;29.08;;;3.90;91.00;;;;;;6164750;23;20031;-76
2022/01/26 06:36:07;;;;;;;59.47;26.08;;;3.90;91.00;;;;;;6138498;23;20021;-75
2022/01/26 06:38:36;;;;;;;63.78;27.70;;;3.90;91.00;;;;;;6164817;23;20130;-78
2022/01/26 06:41:02;;;;;;;67.18;26.58;;;3.90;91.00;;;;;;6114222;23;20510;-77
2022/01/26 06:43:30;;;;;;;66.18;28.08;;;3.90;91.00;;;;;;6163263;23;20095;-76
2022/01/26 06:46:07;;;;;;;58.28;24.80;;;3.90;90.90;;;;;;6164252;23;20021;-75
2022/01/26 06:51:04;;;;;;;65.72;26.95;;;3.90;90.90;;;;;;6139966;23;20114;-75
2022/01/26 06:53:33;;;;;;;63.30;26.38;;;3.90;90.90;;;;;;6116078;23;20043;-75
2022/01/26 06:55:59;;;;;;;68.25;27.95;;;3.80;90.90;;;;;;6162633;23;20033;-73
2022/01/26 06:58:24;;;;;;;63.30;27.15;;;3.90;90.90;;;;;;6138385;23;20101;-74
2022/01/26 07:00:50;;;;;;;66.28;28.38;;;3.90;90.90;;;;;;6138108;23;20031;-80
2022/01/26 07:03:16;;;;;;;65.47;28.45;;;3.90;90.90;;;;;;6189874;23;20024;-75
2022/01/26 07:05:42;;;;;;;66.13;26.15;;;3.90;90.90;;;;;;6163250;23;20021;-73
2022/01/26 07:08:08;;;;;;;61.80;26.90;;;3.90;90.90;;;;;;6136256;23;20045;-76
2022/01/26 07:10:34;;;;;;;62.97;26.00;;;3.90;90.90;;;;;;6112485;23;20052;-76
2022/01/26 07:13:01;;;;;;;70.97;28.70;;;3.90;90.90;;;;;;6137063;23;20077;-75
2022/01/26 07:21:26;;;;;;;69.30;30.15;;;3.90;90.80;;;;;;6085913;23;20059;-75
2022/01/26 07:23:53;;;;;;;74.68;30.60;;;3.90;90.80;;;;;;6103090;23;20428;-75
2022/01/26 07:26:19;;;;;;;69.57;30.45;;;3.90;90.80;;;;;;6124792;23;20044;-74
2022/01/26 07:28:45;;;;;;;72.97;29.65;;;3.90;90.80;;;;;;6162477;23;20017;-74
2022/01/26 07:31:11;;;;;;;68.90;31.33;;;3.90;90.80;;;;;;6113821;23;20020;-75
2022/01/26 07:33:38;;;;;;;72.70;30.75;;;3.90;90.80;;;;;;6114609;23;20507;-75
2022/01/26 07:36:04;;;;;;;82.40;33.65;;;3.90;90.80;;;;;;6138674;23;20388;-75
2022/01/26 07:38:31;;;;;;;76.60;31.10;;;3.90;90.80;;;;;;6115309;23;20025;-74
2022/01/26 07:40:57;;;;;;;75.40;35.08;;;3.90;90.80;;;;;;6162582;23;20013;-77
2022/01/26 07:43:24;;;;;;;75.43;32.60;;;3.90;90.90;;;;;;6112838;23;20017;-75
2022/01/26 07:45:50;;;;;;;75.78;33.72;;;3.90;90.90;;;;;;6138175;23;20071;-74
2022/01/26 07:48:15;;;;;;;81.05;35.13;;;3.90;90.90;;;;;;6137353;23;20025;-75
2022/01/26 07:50:41;;;;;;;79.18;35.50;;;3.90;90.90;;;;;;6137175;23;20347;-75
2022/01/26 07:53:13;;;;;;;81.45;36.25;;;3.90;91.30;;;;;;6159680;23;20017;-75
2022/01/26 07:55:39;;;;;;;79.40;36.20;;;3.90;91.00;;;;;;6136761;23;20343;-75
2022/01/26 07:58:05;;;;;;;90.20;39.92;;;3.90;91.00;;;;;;6159947;23;20056;-75
2022/01/26 08:00:31;;;;;;;88.97;39.17;;;3.90;91.00;;;;;;6136395;23;20028;-75
2022/01/26 08:02:57;;;;;;;94.75;40.65;;;3.90;91.00;;;;;;6111896;23;20021;-75
2022/01/26 08:05:24;;;;;;;97.93;41.95;;;3.90;91.00;;;;;;6160788;23;20024;-75
2022/01/26 08:07:50;;;;;;;89.65;41.47;;;3.90;91.00;;;;;;6186734;23;20024;-74
2022/01/26 08:10:16;;;;;;;93.88;43.88;;;4.00;91.10;;;;;;6136855;23;20025;-74
2022/01/26 08:12:42;;;;;;;98.32;43.80;;;3.90;91.10;;;;;;6162104;23;20339;-75
2022/01/26 08:15:08;;;;;;;103.07;46.10;;;3.90;91.10;;;;;;6137284;23;20013;-76
2022/01/26 08:17:35;;;;;;;113.20;48.83;;;4.00;91.10;;;;;;6114315;23;20025;-76
2022/01/26 08:20:04;;;;;;;103.63;48.50;;;4.00;91.10;;;;;;6138124;23;20036;-82
2022/01/26 08:22:30;;;;;;;110.88;51.30;;;4.00;91.10;;;;;;6139273;23;20017;-76
2022/01/26 08:24:56;;;;;;;117.90;54.08;;;4.00;91.10;;;;;;6113393;23;20017;-75
2022/01/26 08:27:24;;;;;;;123.68;55.50;;;4.00;91.10;;;;;;6113214;23;20075;-81
2022/01/26 08:29:54;;;;;;;136.43;55.80;;;4.00;91.10;;;;;;6191292;23;20060;-81
2022/01/26 08:32:22;;;;;;;137.60;59.67;;;4.00;91.10;;;;;;6138795;23;20021;-75
2022/01/26 08:34:47;;;;;;;143.05;63.28;;;4.00;91.10;;;;;;6158814;23;20439;-73
2022/01/26 08:37:13;;;;;;;135.02;55.80;;;4.00;91.10;;;;;;6159492;23;20054;-77
2022/01/26 08:39:40;;;;;;;145.68;63.03;;;4.20;91.70;;;;;;6138345;23;20021;-86
2022/01/26 08:42:06;;;;;;;136.10;59.55;;;4.20;91.30;;;;;;6114590;23;20017;-79
2022/01/26 08:44:33;;;;;;;139.55;61.55;;;4.20;91.20;;;;;;6113433;23;20017;-76
2022/01/26 08:46:59;;;;;;;135.50;58.72;;;4.20;91.10;;;;;;6139085;23;20017;-76
2022/01/26 08:49:25;;;;;;;136.45;60.63;;;4.30;91.10;;;;;;6138938;23;20027;-78
2022/01/26 08:51:51;;;;;;;138.27;61.08;;;4.20;91.10;;;;;;6114171;23;20021;-77
2022/01/26 08:54:20;;;;;;;137.20;63.72;;;4.30;91.20;;;;;;6138774;23;20118;-77
2022/01/26 08:56:51;;;;;;;140.68;64.78;;;4.20;91.10;;;;;;6140499;23;20013;-74
2022/01/26 08:59:18;;;;;;;144.82;64.43;;;4.30;91.20;;;;;;6115298;23;20470;-78
2022/01/26 09:01:46;;;;;;;142.23;63.55;;;4.30;91.20;;;;;;6138993;23;20033;-76
2022/01/26 09:04:11;;;;;;;158.38;70.20;;;4.30;91.20;;;;;;6164250;23;20017;-80
2022/01/26 09:06:49;;;;;;;154.38;67.05;;;4.30;91.20;;;;;;6163379;23;20048;-78
2022/01/26 09:09:16;;;;;;;148.32;63.15;;;4.30;91.30;;;;;;6117354;23;20017;-78
2022/01/26 09:11:42;;;;;;;156.98;66.88;;;4.30;91.30;;;;;;6163539;23;20024;-78
2022/01/26 09:14:10;;;;;;;155.05;65.72;;;4.30;91.40;;;;;;6139305;23;20036;-80
2022/01/26 09:16:36;;;;;;;126.07;53.10;;;4.30;91.40;;;;;;6137266;23;20562;-75
2022/01/26 09:19:06;;;;;;;146.55;62.00;;;4.50;92.20;;;;;;6136106;23;20055;-76
2022/01/26 09:21:32;;;;;;;141.02;63.38;;;4.60;91.90;;;;;;6161309;23;20024;-77
2022/01/26 09:23:58;;;;;;;145.45;65.35;;;4.70;91.50;;;;;;6114255;23;20017;-75
2022/01/26 09:26:24;;;;;;;142.80;63.45;;;4.60;91.40;;;;;;6115337;23;20072;-77
2022/01/26 09:28:49;;;;;;;144.10;64.03;;;4.60;91.40;;;;;;6139159;23;20017;-78
2022/01/26 09:31:15;;;;;;;143.68;61.70;;;4.60;91.40;;;;;;6138135;23;20028;-79
2022/01/26 09:33:41;;;;;;;148.23;63.83;;;4.60;91.40;;;;;;6139931;23;20032;-79
2022/01/26 09:36:07;;;;;;;145.38;64.97;;;4.60;91.40;;;;;;6141532;23;20052;-78
2022/01/26 09:38:33;;;;;;;153.25;65.10;;;4.60;91.50;;;;;;6117223;23;20021;-81
2022/01/26 09:40:58;;;;;;;144.73;64.15;;;4.60;91.50;;;;;;6166210;23;20052;-78
2022/01/26 09:43:24;;;;;;;143.52;64.38;;;4.60;91.50;;;;;;6165015;23;20021;-75
2022/01/26 09:45:50;;;;;;;142.32;61.50;;;4.60;91.50;;;;;;6139624;23;20431;-78
2022/01/26 09:48:17;;;;;;;144.55;63.05;;;4.60;91.50;;;;;;6115101;23;20021;-77
2022/01/26 09:50:44;;;;;;;146.43;62.67;;;4.60;91.50;;;;;;6116084;23;20021;-77
2022/01/26 09:53:26;;;;;;;145.65;63.30;;;4.60;91.50;;;;;;6141456;23;20080;-81
2022/01/26 09:55:52;;;;;;;141.07;61.58;;;4.60;91.60;;;;;;6141641;23;20024;-76
2022/01/26 09:58:20;;;;;;;141.57;62.20;;;4.60;91.60;;;;;;6164945;23;20021;-78
2022/01/26 10:00:46;;;;;;;143.23;63.90;;;4.70;91.60;;;;;;6138768;23;20110;-77
2022/01/26 10:03:13;;;;;;;141.10;62.10;;;4.70;91.60;;;;;;6139470;23;20048;-76
2022/01/26 10:05:43;;;;;;;138.38;59.70;;;4.70;91.60;;;;;;6140069;23;20029;-75
2022/01/26 10:18:56;;;;;;;134.50;57.78;;;4.70;91.60;;;;;;6161586;23;20079;-76
2022/01/26 10:21:23;;;;;;;135.50;57.50;;;4.70;91.50;;;;;;6136259;23;20040;-76
2022/01/26 10:23:49;;;;;;;123.90;55.10;;;4.80;91.60;;;;;;6161087;23;20013;-73
2022/01/26 10:26:16;;;;;;;135.20;55.78;;;4.80;91.50;;;;;;6161569;23;20250;-74
2022/01/26 10:28:45;;;;;;;135.50;57.05;;;4.80;91.50;;;;;;6136412;23;20056;-74
2022/01/26 10:31:18;;;;;;;121.63;54.15;;;4.90;91.50;;;;;;6137042;23;20017;-74
2022/01/26 10:33:56;;;;;;;124.63;53.13;;;4.90;91.50;;;;;;6161666;23;20021;-73
2022/01/26 10:36:22;;;;;;;122.25;54.42;;;4.90;91.50;;;;;;6137300;23;20024;-77
2022/01/26 10:39:11;;;;;;;127.03;53.75;;;4.90;91.50;;;;;;6138828;23;20013;-76
2022/01/26 10:41:38;;;;;;;113.65;51.70;;;4.90;91.50;;;;;;6139462;23;20354;-76
2022/01/26 10:44:04;;;;;;;117.32;52.30;;;4.90;91.40;;;;;;6138930;23;20336;-74
2022/01/26 10:46:38;;;;;;;108.57;49.72;;;4.90;91.40;;;;;;6138752;23;20032;-76
2022/01/26 10:49:15;;;;;;;121.22;51.95;;;4.90;91.40;;;;;;6163595;23;20040;-77
2022/01/26 10:56:54;;;;;;;119.47;51.97;;;5.00;91.40;;;;;;6141467;23;20021;-77
2022/01/26 10:59:19;;;;;;;104.13;49.40;;;5.00;91.30;;;;;;6135092;23;20035;-75
2022/01/26 11:01:45;;;;;;;101.63;45.13;;;5.00;91.30;;;;;;6111137;23;20452;-76
2022/01/26 11:04:11;;;;;;;108.13;46.63;;;5.10;91.20;;;;;;6137221;23;20013;-74
2022/01/26 11:06:40;;;;;;;104.28;46.78;;;5.10;91.20;;;;;;6136596;23;20060;-77
2022/01/26 11:09:13;;;;;;;114.03;49.33;;;5.00;91.20;;;;;;6139578;23;20013;-75
2022/01/26 11:11:40;;;;;;;105.07;45.95;;;5.10;91.10;;;;;;6164857;23;20374;-74
2022/01/26 11:14:16;;;;;;;98.57;43.47;;;5.10;91.10;;;;;;6114373;23;20099;-75
2022/01/26 11:16:54;;;;;;;103.20;44.30;;;5.10;91.10;;;;;;6163471;23;20017;-76
2022/01/26 11:19:20;;;;;;;102.43;46.47;;;5.10;91.10;;;;;;6139520;23;20017;-74
2022/01/26 11:21:45;;;;;;;102.07;45.83;;;5.10;91.00;;;;;;6114025;23;20510;-78
2022/01/26 11:24:23;;;;;;;95.00;44.28;;;5.20;91.00;;;;;;6138592;23;20020;-75
2022/01/26 11:27:01;;;;;;;105.55;46.85;;;5.20;91.00;;;;;;6141228;23;20013;-76
2022/01/26 11:29:32;;;;;;;107.82;45.08;;;5.20;91.00;;;;;;6141393;23;20323;-76
2022/01/26 11:32:11;;;;;;;96.00;46.50;;;5.20;90.90;;;;;;6164934;23;20013;-75
2022/01/26 11:34:37;;;;;;;96.57;41.78;;;5.20;90.90;;;;;;6163811;23;20502;-76
2022/01/26 11:37:05;;;;;;;100.63;44.42;;;5.20;90.90;;;;;;6164399;23;20405;-76
2022/01/26 11:45:22;;;;;;;99.53;44.17;;;5.30;90.80;;;;;;6141001;23;20021;-77
2022/01/26 11:48:03;;;;;;;101.15;44.22;;;5.30;90.80;;;;;;6112209;23;20100;-77
2022/01/26 11:50:30;;;;;;;100.95;43.50;;;5.30;90.80;;;;;;6136539;23;20392;-77
2022/01/26 11:53:05;;;;;;;90.28;40.45;;;5.30;90.70;;;;;;6112905;23;20032;-75
2022/01/26 11:55:37;;;;;;;96.70;41.85;;;5.30;90.70;;;;;;6137338;23;20436;-79
2022/01/26 11:58:07;;;;;;;93.53;40.03;;;5.30;90.70;;;;;;6138180;23;20028;-78
2022/01/26 12:00:47;;;;;;;89.30;41.88;;;5.30;90.70;;;;;;6137307;23;20021;-75
2022/01/26 12:03:26;;;;;;;98.75;39.90;;;5.30;90.70;;;;;;6116484;23;20021;-76
2022/01/26 12:05:56;;;;;;;88.72;39.00;;;5.30;90.70;;;;;;6138433;23;20027;-77
2022/01/26 12:08:33;;;;;;;95.57;40.47;;;5.40;90.70;;;;;;6139838;23;20021;-77
2022/01/26 12:10:59;;;;;;;91.97;40.30;;;5.30;90.70;;;;;;6139081;23;20025;-77
2022/01/26 12:13:26;;;;;;;86.90;40.65;;;5.40;90.70;;;;;;6139115;23;20077;-76
2022/01/26 12:15:58;;;;;;;90.55;41.15;;;5.40;90.70;;;;;;6139347;23;20060;-78
2022/01/26 12:18:36;;;;;;;84.07;39.10;;;5.40;90.70;;;;;;6141147;23;20021;-79
2022/01/26 12:33:38;;;;;;;92.32;39.05;;;5.70;91.80;;;;;;6145188;23;20021;-75
2022/01/26 12:36:13;;;;;;;93.10;39.78;;;5.70;91.30;;;;;;6144669;23;20088;-75
2022/01/26 12:38:45;;;;;;;99.47;42.90;;;5.80;91.20;;;;;;6142702;23;20143;-76
2022/01/26 12:41:36;;;;;;;95.63;40.80;;;5.80;91.00;;;;;;6141448;23;20024;-82
2022/01/26 12:44:10;;;;;;;95.75;41.67;;;5.70;90.90;;;;;;6145028;23;20309;-77
2022/01/26 12:46:36;;;;;;;95.75;42.35;;;5.80;91.00;;;;;;6135663;23;20017;-77
2022/01/26 12:49:15;;;;;;;85.75;40.05;;;5.80;91.00;;;;;;6135818;23;20021;-74
2022/01/26 12:51:42;;;;;;;97.85;43.80;;;5.70;91.00;;;;;;6160737;23;20035;-78
2022/01/26 12:54:08;;;;;;;87.50;39.05;;;5.70;91.00;;;;;;6135670;23;20017;-74
2022/01/26 12:56:34;;;;;;;92.30;41.42;;;5.70;91.00;;;;;;6111166;23;20347;-75
2022/01/26 12:59:02;;;;;;;92.18;41.97;;;5.70;91.10;;;;;;6136810;23;20020;-75
2022/01/26 13:01:28;;;;;;;86.20;40.10;;;5.70;91.10;;;;;;6138075;23;20092;-76
2022/01/26 13:03:59;;;;;;;87.07;39.35;;;5.70;91.00;;;;;;6163621;23;20024;-78
2022/01/26 13:06:27;;;;;;;83.78;39.83;;;5.70;91.20;;;;;;6140313;23;20017;-76
2022/01/26 13:08:58;;;;;;;89.45;38.92;;;5.80;91.20;;;;;;6114943;23;20448;-76
2022/01/26 13:11:34;;;;;;;79.28;37.70;;;5.70;91.20;;;;;;6164322;23;20088;-75
2022/01/26 13:14:21;;;;;;;85.88;38.72;;;5.70;91.30;;;;;;6138127;23;20017;-74
2022/01/26 13:17:15;;;;;;;98.78;42.67;;;5.70;91.30;;;;;;6142384;23;20021;-74
2022/01/26 13:20:40;;;;;;;87.88;39.90;;;5.70;91.40;;;;;;6141341;23;20013;-76
2022/01/26 13:25:39;;;;;;;96.63;42.10;;;5.60;91.40;;;;;;6141178;23;20339;-75
2022/01/26 13:31:26;;;;;;;94.38;40.97;;;5.60;91.40;;;;;;6145004;23;20021;-75
2022/01/26 13:34:27;;;;;;;92.15;40.90;;;5.60;91.40;;;;;;6117463;23;20043;-75
2022/01/26 13:37:14;;;;;;;92.38;41.25;;;5.60;91.50;;;;;;6141330;23;20075;-73
2022/01/26 13:39:55;;;;;;;94.15;42.22;;;5.70;91.50;;;;;;6118563;23;20017;-75
2022/01/26 13:53:13;;;;;;;90.63;39.60;;;5.70;91.70;;;;;;6138998;23;20421;-73
2022/01/26 13:58:20;;;;;;;87.72;41.60;;;5.70;91.70;;;;;;6162830;23;20025;-73
2022/01/26 14:00:55;;;;;;;86.75;40.15;;;5.70;91.70;;;;;;6142353;23;20048;-75
2022/01/26 14:03:24;;;;;;;91.85;41.03;;;5.70;91.70;;;;;;6117362;23;20024;-74
2022/01/26 14:05:49;;;;;;;92.50;41.42;;;5.80;91.70;;;;;;6162972;23;20017;-73
2022/01/26 14:08:15;;;;;;;85.75;40.58;;;5.80;91.70;;;;;;6138234;23;20072;-74
2022/01/26 14:10:44;;;;;;;87.22;41.10;;;5.90;91.70;;;;;;6138425;23;20060;-74
2022/01/26 14:13:10;;;;;;;80.35;39.88;;;5.90;91.60;;;;;;6188923;23;20028;-74
2022/01/26 14:15:43;;;;;;;93.88;40.85;;;5.90;91.60;;;;;;6163545;23;20021;-74
2022/01/26 14:19:04;;;;;;;87.10;38.80;;;5.90;91.60;;;;;;6165291;23;20021;-73
2022/01/26 14:23:59;;;;;;;74.78;37.83;;;6.00;91.60;;;;;;6142992;23;20021;-74
2022/01/26 14:26:30;;;;;;;87.72;40.38;;;6.00;91.60;;;;;;6118485;23;20017;-74
2022/01/26 14:28:55;;;;;;;86.57;41.03;;;6.00;91.60;;;;;;6114719;23;20395;-73
2022/01/26 14:31:39;;;;;;;82.40;38.38;;;6.00;91.60;;;;;;6112999;23;20025;-73
2022/01/26 14:36:51;;;;;;;83.10;39.78;;;6.00;91.50;;;;;;6162099;23;20028;-75
2022/01/26 14:54:02;;;;;;;77.18;37.08;;;6.00;91.50;;;;;;6140276;23;20320;-74
2022/01/26 15:19:11;;;;;;;66.68;33.22;;;6.00;91.60;;;;;;6139521;23;20032;-75
2022/01/26 15:31:14;;;;;;;73.32;33.90;;;6.00;91.80;;;;;;6137768;23;20044;-71
2022/01/26 15:33:39;;;;;;;70.45;33.47;;;6.00;91.70;;;;;;6138828;23;20039;-74
2022/01/26 15:52:18;;;;;;;74.88;34.03;;;6.00;91.90;;;;;;6135905;23;20035;-73
2022/01/26 16:26:53;;;;;;;70.07;34.58;;;6.10;92.00;;;;;;6137300;23;20025;-72
2022/01/26 17:27:53;;;;;;;76.32;35.40;;;6.00;92.20;;;;;;6141993;23;20051;-76
2022/01/26 18:16:31;;;;;;;64.38;31.17;;;6.30;92.20;;;;;;6141065;23;20455;-75
2022/01/26 18:51:41;;;;;;;72.03;35.55;;;6.20;92.30;;;;;;6143997;23;20021;-79
2022/01/26 18:54:10;;;;;;;65.35;34.60;;;6.20;92.30;;;;;;6165324;23;20052;-80
2022/01/26 18:56:46;;;;;;;72.30;36.05;;;6.20;92.30;;;;;;6164228;23;20524;-76
2022/01/26 18:59:22;;;;;;;67.68;34.92;;;6.20;92.30;;;;;;6166748;23;20024;-74
2022/01/26 19:01:51;;;;;;;72.45;35.78;;;6.20;92.30;;;;;;6116163;23;20021;-75
2022/01/26 19:04:25;;;;;;;74.47;38.63;;;6.20;92.40;;;;;;6139883;23;20017;-74